createdAt,value
2022-08-14T00:04:36.098Z,20.04
2022-08-14T00:07:07.639Z,19.91
2022-08-14T00:12:40.275Z,19.84
2022-08-14T00:18:31.006Z,20.01
2022-08-14T00:23:54.237Z,19.97
2022-08-14T00:26:42.816Z,19.68
2022-08-14T00:32:52.577Z,19.88
2022-08-14T00:35:11.749Z,19.71
2022-08-14T00:40:48.681Z,19.34
2022-08-14T00:46:23.425Z,19.45
2022-08-14T00:52:00.645Z,19.70
2022-08-14T00:54:58.090Z,19.52
2022-08-14T01:00:37.559Z,19.49
2022-08-14T01:06:12.592Z,19.51
2022-08-14T01:09:02.198Z,19.36
2022-08-14T01:12:02.927Z,19.29
2022-08-14T01:14:41.670Z,19.27
2022-08-14T01:17:52.281Z,19.13
2022-08-14T01:23:22.982Z,19.11
2022-08-14T01:29:04.211Z,18.79
2022-08-14T01:35:17.791Z,18.85
2022-08-14T01:37:24.876Z,18.79
2022-08-14T01:42:56.699Z,18.73
2022-08-14T01:46:06.301Z,18.68
2022-08-14T01:51:28.423Z,18.40
2022-08-14T01:54:20.405Z,18.37
2022-08-14T01:57:11.905Z,18.51
2022-08-14T02:02:48.018Z,18.59
2022-08-14T02:08:34.694Z,18.39
2022-08-14T02:14:07.566Z,18.60
2022-08-14T02:16:55.404Z,18.44
2022-08-14T02:19:43.754Z,18.24
2022-08-14T02:28:24.751Z,18.23
2022-08-14T02:34:04.620Z,18.18
2022-08-14T02:37:04.451Z,18.00
2022-08-14T02:42:37.169Z,17.92
2022-08-14T02:45:33.487Z,17.93
2022-08-14T02:51:00.816Z,18.01
2022-08-14T02:53:51.923Z,17.85
2022-08-14T02:59:29.488Z,18.04
2022-08-14T03:02:49.235Z,17.92
2022-08-14T03:08:07.947Z,17.87
2022-08-14T03:13:44.532Z,17.77
2022-08-14T03:16:35.717Z,17.76
2022-08-14T03:22:09.307Z,17.81
2022-08-14T03:24:58.890Z,17.68
2022-08-14T03:30:39.981Z,17.67
2022-08-14T03:37:38.855Z,17.81
2022-08-14T03:41:55.295Z,17.72
2022-08-14T03:45:27.700Z,17.66
2022-08-14T03:50:31.101Z,17.60
2022-08-14T03:53:13.989Z,17.51
2022-08-14T03:58:51.672Z,17.28
2022-08-14T04:04:22.332Z,17.16
2022-08-14T04:10:02.776Z,17.18
2022-08-14T04:15:31.296Z,17.30
2022-08-14T04:21:04.713Z,17.36
2022-08-14T04:29:28.132Z,17.36
2022-08-14T04:35:07.855Z,17.41
2022-08-14T04:38:36.788Z,17.41
2022-08-14T04:41:17.774Z,17.45
2022-08-14T04:47:07.279Z,17.62
2022-08-14T04:52:44.177Z,17.69
2022-08-14T04:55:34.078Z,17.61
2022-08-14T05:01:19.637Z,17.66
2022-08-14T05:04:07.106Z,17.66
2022-08-14T05:06:55.961Z,17.60
2022-08-14T05:13:11.249Z,17.71
2022-08-14T05:19:17.068Z,17.77
2022-08-14T05:24:18.942Z,19.37
2022-08-14T05:27:09.454Z,20.45
2022-08-14T05:29:58.916Z,21.24
2022-08-14T05:35:25.338Z,22.38
2022-08-14T05:38:30.977Z,22.65
2022-08-14T05:46:29.872Z,24.31
2022-08-14T05:49:18.278Z,24.38
2022-08-14T05:57:50.355Z,24.69
2022-08-14T06:00:42.170Z,24.68
2022-08-14T06:03:34.734Z,24.91
2022-08-14T06:06:25.224Z,25.13
2022-08-14T06:12:04.916Z,25.79
2022-08-14T06:18:03.734Z,26.04
2022-08-14T06:20:52.755Z,25.98
2022-08-14T06:26:33.968Z,26.29
2022-08-14T06:29:25.331Z,26.16
2022-08-14T06:35:12.488Z,26.07
2022-08-14T06:40:43.061Z,25.56
2022-08-14T06:43:30.650Z,25.51
2022-08-14T06:46:23.064Z,25.94
2022-08-14T06:49:10.879Z,25.94
2022-08-14T06:54:50.035Z,26.13
2022-08-14T07:00:27.107Z,26.30
2022-08-14T07:05:59.469Z,26.25
2022-08-14T07:11:44.759Z,26.22
2022-08-14T07:14:34.158Z,26.23
2022-08-14T07:17:23.230Z,26.15
2022-08-14T07:20:31.214Z,26.08
2022-08-14T07:23:20.693Z,25.79
2022-08-14T07:28:49.290Z,25.53
2022-08-14T07:34:40.865Z,25.86
2022-08-14T07:37:28.102Z,25.51
2022-08-14T07:40:27.367Z,25.60
2022-08-14T07:46:01.047Z,25.89
2022-08-14T07:51:36.604Z,25.75
2022-08-14T07:57:26.298Z,25.62
2022-08-14T08:03:03.923Z,25.81
2022-08-14T08:08:39.308Z,26.14
2022-08-14T08:14:56.765Z,25.93
2022-08-14T08:20:21.644Z,25.27
2022-08-14T08:31:33.001Z,25.51
2022-08-14T08:37:07.241Z,25.85
2022-08-14T08:42:38.856Z,25.98
2022-08-14T08:48:20.687Z,26.51
2022-08-14T08:53:42.471Z,26.53
2022-08-14T08:59:30.937Z,26.97
2022-08-14T09:05:03.214Z,27.05
2022-08-14T09:10:37.207Z,26.78
2022-08-14T09:16:18.595Z,26.33
2022-08-14T09:21:42.656Z,26.62
2022-08-14T09:27:22.229Z,26.69
2022-08-14T09:33:00.097Z,26.85
2022-08-14T09:35:57.038Z,26.70
2022-08-14T09:38:50.766Z,26.65
2022-08-14T09:42:20.280Z,26.61
2022-08-14T09:47:46.507Z,26.81
2022-08-14T09:54:19.353Z,26.80
2022-08-14T09:56:45.610Z,26.67
2022-08-14T10:02:45.681Z,26.68
2022-08-14T10:08:26.414Z,26.94
2022-08-14T10:14:29.554Z,27.40
2022-08-14T10:19:52.541Z,27.98
2022-08-14T10:23:14.696Z,28.06
2022-08-14T10:31:45.366Z,28.59
2022-08-14T10:34:36.574Z,28.64
2022-08-14T10:40:38.350Z,28.76
2022-08-14T10:46:03.320Z,29.23
2022-08-14T10:52:01.818Z,29.85
2022-08-14T10:57:48.758Z,29.70
2022-08-14T11:06:15.142Z,30.17
2022-08-14T11:12:44.092Z,30.46
2022-08-14T11:14:59.448Z,30.30
2022-08-14T11:17:47.385Z,30.69
2022-08-14T11:20:39.421Z,30.64
2022-08-14T11:23:37.746Z,30.65
2022-08-14T11:26:23.657Z,30.85
2022-08-14T11:32:03.291Z,31.33
2022-08-14T11:37:43.907Z,30.96
2022-08-14T11:40:36.087Z,31.11
2022-08-14T11:43:29.462Z,30.59
2022-08-14T11:46:17.744Z,30.44
2022-08-14T11:51:56.826Z,30.61
2022-08-14T11:57:33.480Z,31.07
2022-08-14T12:00:21.785Z,31.04
2022-08-14T12:03:14.380Z,31.00
2022-08-14T12:08:53.911Z,30.73
2022-08-14T12:11:47.377Z,30.62
2022-08-14T12:14:39.646Z,30.32
2022-08-14T12:17:25.943Z,29.83
2022-08-14T12:26:31.936Z,29.79
2022-08-14T12:32:08.823Z,29.86
2022-08-14T12:34:58.100Z,29.87
2022-08-14T12:37:50.863Z,29.86
2022-08-14T12:40:48.426Z,30.36
2022-08-14T12:46:35.225Z,29.98
2022-08-14T12:52:17.933Z,29.83
2022-08-14T12:58:00.837Z,29.77
2022-08-14T13:01:12.634Z,29.72
2022-08-14T13:06:34.216Z,29.62
2022-08-14T13:12:32.216Z,29.42
2022-08-14T13:18:01.092Z,29.66
2022-08-14T13:23:37.604Z,29.41
2022-08-14T13:29:14.696Z,28.63
2022-08-14T13:32:05.429Z,28.65
2022-08-14T13:40:30.277Z,28.22
2022-08-14T13:46:04.439Z,28.02
2022-08-14T13:51:47.293Z,27.86
2022-08-14T13:54:38.544Z,27.77
2022-08-14T14:00:15.167Z,28.04
2022-08-14T14:05:54.860Z,28.38
2022-08-14T14:11:34.586Z,28.57
2022-08-14T14:17:05.508Z,28.58
2022-08-14T14:23:02.203Z,28.81
2022-08-14T14:25:43.224Z,28.57
2022-08-14T14:31:16.875Z,28.56
2022-08-14T14:37:07.103Z,28.10
2022-08-14T14:42:55.658Z,28.03
2022-08-14T14:45:46.237Z,28.08
2022-08-14T14:51:15.550Z,28.02
2022-08-14T14:54:06.277Z,28.06
2022-08-14T14:56:55.717Z,28.24
2022-08-14T14:59:45.377Z,28.33
2022-08-14T15:05:18.069Z,27.89
2022-08-14T15:10:57.891Z,27.69
2022-08-14T15:13:53.227Z,27.46
2022-08-14T15:19:27.681Z,27.61
2022-08-14T15:25:04.190Z,27.70
2022-08-14T15:30:41.994Z,27.37
2022-08-14T15:34:13.379Z,27.52
2022-08-14T15:36:40.123Z,27.38
2022-08-14T15:39:33.988Z,27.30
2022-08-14T15:47:51.914Z,27.07
2022-08-14T15:53:22.977Z,26.98
2022-08-14T15:58:49.663Z,26.80
2022-08-14T16:04:28.911Z,26.94
2022-08-14T16:07:22.175Z,26.98
2022-08-14T16:12:51.743Z,27.23
2022-08-14T16:18:35.943Z,27.07
2022-08-14T16:24:27.506Z,27.14
2022-08-14T16:32:55.448Z,27.00
2022-08-14T16:35:42.575Z,26.88
2022-08-14T16:41:29.596Z,26.53
2022-08-14T16:47:07.363Z,26.40
2022-08-14T16:50:03.812Z,26.29
2022-08-14T16:52:56.088Z,26.02
2022-08-14T16:58:29.568Z,26.14
2022-08-14T17:04:09.077Z,26.01
2022-08-14T17:09:43.203Z,25.97
2022-08-14T17:12:35.187Z,25.80
2022-08-14T17:15:23.474Z,25.81
2022-08-14T17:18:15.066Z,25.75
2022-08-14T17:21:19.465Z,25.74
2022-08-14T17:29:54.380Z,25.77
2022-08-14T17:32:55.777Z,25.75
2022-08-14T17:35:57.931Z,25.71
2022-08-14T17:41:23.296Z,25.83
2022-08-14T17:46:58.000Z,25.64
2022-08-14T17:52:41.420Z,25.60
2022-08-14T17:56:03.377Z,25.58
2022-08-14T17:58:24.262Z,25.55
2022-08-14T18:01:15.576Z,25.51
2022-08-14T18:04:25.147Z,25.39
2022-08-14T18:07:06.201Z,25.46
2022-08-14T18:12:36.612Z,25.30
2022-08-14T18:18:13.772Z,25.14
2022-08-14T18:23:52.127Z,25.08
2022-08-14T18:26:41.617Z,24.89
2022-08-14T18:29:31.714Z,24.83
2022-08-14T18:35:45.972Z,24.72
2022-08-14T18:44:15.648Z,24.65
2022-08-14T18:53:15.223Z,24.60
2022-08-14T18:58:57.282Z,24.63
2022-08-14T19:04:41.841Z,24.56
2022-08-14T19:07:33.852Z,24.50
2022-08-14T19:16:22.734Z,24.47
2022-08-14T19:21:57.766Z,24.23
2022-08-14T19:24:50.238Z,24.16
2022-08-14T19:30:29.343Z,24.23
2022-08-14T19:37:05.314Z,24.16
2022-08-14T19:42:46.768Z,24.18
2022-08-14T19:45:30.120Z,24.12
2022-08-14T19:51:12.243Z,24.15
2022-08-14T19:56:49.577Z,24.23
2022-08-14T19:59:57.611Z,24.02
2022-08-14T20:05:18.251Z,23.91
2022-08-14T20:08:07.522Z,23.91
2022-08-14T20:13:45.118Z,23.93
2022-08-14T20:16:36.888Z,23.92
2022-08-14T20:19:29.138Z,23.88
2022-08-14T20:25:15.114Z,23.84
2022-08-14T20:31:22.234Z,23.97
2022-08-14T20:34:19.099Z,23.75
2022-08-14T20:39:54.285Z,23.69
2022-08-14T20:45:28.839Z,23.77
2022-08-14T20:48:53.242Z,23.77
2022-08-14T20:51:24.342Z,23.74
2022-08-14T20:59:47.091Z,23.70
2022-08-14T21:02:50.173Z,23.65
2022-08-14T21:05:33.712Z,23.57
2022-08-14T21:14:24.850Z,23.35
2022-08-14T21:22:37.028Z,23.16
2022-08-14T21:28:29.938Z,23.00
2022-08-14T21:33:56.483Z,22.98
2022-08-14T21:39:36.337Z,23.03
2022-08-14T21:42:27.968Z,23.02
2022-08-14T21:48:09.185Z,23.18
2022-08-14T21:53:58.547Z,23.14
2022-08-14T21:56:37.122Z,23.10
2022-08-14T22:02:32.967Z,23.11
2022-08-14T22:08:11.938Z,23.02
2022-08-14T22:13:51.381Z,23.05
2022-08-14T22:22:26.097Z,22.91
2022-08-14T22:25:22.538Z,22.83
2022-08-14T22:28:17.839Z,22.76
2022-08-14T22:33:58.063Z,22.74
2022-08-14T22:40:17.379Z,22.74
2022-08-14T22:42:22.692Z,22.73
2022-08-14T22:47:57.448Z,22.77
2022-08-14T22:53:29.143Z,22.72
2022-08-14T22:59:04.875Z,22.62
2022-08-14T23:04:54.261Z,22.45
2022-08-14T23:09:00.128Z,22.27
2022-08-14T23:10:32.093Z,22.15
2022-08-14T23:16:02.309Z,21.55
2022-08-14T23:21:46.427Z,21.44
2022-08-14T23:27:20.994Z,21.36
2022-08-14T23:30:33.888Z,21.14
2022-08-14T23:36:31.583Z,20.81
2022-08-14T23:41:46.267Z,20.79
2022-08-14T23:44:31.272Z,20.65
2022-08-14T23:47:26.596Z,20.48
2022-08-14T23:53:07.454Z,20.46
2022-08-14T23:55:47.026Z,20.28
